createdAt,value
2023-04-14T00:00:03.948Z,12.47
2023-04-14T00:02:31.934Z,12.48
2023-04-14T00:05:00.041Z,12.55
2023-04-14T00:07:27.921Z,12.33
2023-04-14T00:09:57.211Z,12.35
2023-04-14T00:12:25.552Z,12.35
2023-04-14T00:14:53.476Z,12.41
2023-04-14T00:17:21.516Z,12.50
2023-04-14T00:19:49.585Z,12.43
2023-04-14T00:22:18.441Z,12.40
2023-04-14T00:24:46.497Z,12.37
2023-04-14T00:27:15.826Z,12.33
2023-04-14T00:29:43.724Z,12.07
2023-04-14T00:32:11.618Z,12.32
2023-04-14T00:34:39.528Z,12.40
2023-04-14T00:37:07.417Z,12.35
2023-04-14T00:39:35.418Z,12.45
2023-04-14T00:42:03.658Z,12.51
2023-04-14T00:44:32.961Z,12.57
2023-04-14T00:47:02.435Z,12.53
2023-04-14T00:49:30.645Z,12.49
2023-04-14T00:51:59.339Z,12.46
2023-04-14T00:54:28.123Z,12.41
2023-04-14T00:56:58.049Z,12.30
2023-04-14T00:59:26.030Z,12.41
2023-04-14T01:01:56.092Z,12.29
2023-04-14T01:04:29.118Z,12.20
2023-04-14T01:07:01.839Z,12.14
2023-04-14T01:09:30.096Z,12.17
2023-04-14T01:12:07.309Z,12.09
2023-04-14T01:14:43.156Z,12.03
2023-04-14T01:17:16.972Z,11.98
2023-04-14T01:20:02.247Z,11.97
2023-04-14T01:22:33.558Z,12.03
2023-04-14T01:25:23.273Z,12.10
2023-04-14T01:28:09.884Z,12.09
2023-04-14T01:30:58.128Z,12.02
2023-04-14T01:33:29.697Z,12.01
2023-04-14T01:36:01.302Z,12.07
2023-04-14T01:38:34.393Z,12.02
2023-04-14T01:41:07.278Z,12.03
2023-04-14T01:43:42.234Z,12.08
2023-04-14T01:46:13.727Z,11.84
2023-04-14T01:48:43.810Z,11.80
2023-04-14T01:51:16.839Z,11.82
2023-04-14T01:53:47.186Z,11.77
2023-04-14T01:56:18.281Z,11.72
2023-04-14T01:58:47.922Z,11.83
2023-04-14T02:01:17.578Z,11.72
2023-04-14T02:03:48.526Z,11.65
2023-04-14T02:06:17.842Z,11.69
2023-04-14T02:08:45.865Z,11.69
2023-04-14T02:11:18.123Z,11.71
2023-04-14T02:13:47.204Z,11.72
2023-04-14T02:16:16.690Z,11.78
2023-04-14T02:18:46.748Z,11.71
2023-04-14T02:21:17.413Z,11.74
2023-04-14T02:23:45.547Z,11.69
2023-04-14T02:26:17.221Z,11.67
2023-04-14T02:28:52.254Z,11.63
2023-04-14T02:31:24.525Z,11.54
2023-04-14T02:33:56.675Z,11.62
2023-04-14T02:36:32.477Z,11.53
2023-04-14T02:39:03.104Z,11.47
2023-04-14T02:41:32.714Z,11.41
2023-04-14T02:44:07.073Z,11.50
2023-04-14T02:46:40.697Z,11.56
2023-04-14T02:49:14.616Z,11.41
2023-04-14T02:51:43.996Z,11.44
2023-04-14T02:54:12.260Z,11.41
2023-04-14T02:56:40.239Z,11.31
2023-04-14T02:59:08.888Z,11.32
2023-04-14T03:01:37.673Z,11.36
2023-04-14T03:04:06.350Z,11.25
2023-04-14T03:06:37.536Z,11.28
2023-04-14T03:09:07.558Z,11.27
2023-04-14T03:11:37.917Z,11.28
2023-04-14T03:14:08.268Z,11.20
2023-04-14T03:16:41.428Z,10.83
2023-04-14T03:19:10.431Z,11.01
2023-04-14T03:21:40.581Z,10.76
2023-04-14T03:24:09.605Z,10.76
2023-04-14T03:26:38.785Z,10.63
2023-04-14T03:29:07.921Z,10.82
2023-04-14T03:31:38.829Z,10.95
2023-04-14T03:34:08.146Z,11.04
2023-04-14T03:36:37.676Z,11.10
2023-04-14T03:39:08.244Z,11.16
2023-04-14T03:41:38.819Z,11.13
2023-04-14T03:44:14.695Z,11.16
2023-04-14T03:46:42.689Z,11.20
2023-04-14T03:49:12.760Z,11.17
2023-04-14T03:51:43.103Z,11.18
2023-04-14T03:54:15.854Z,11.21
2023-04-14T03:56:45.448Z,11.21
2023-04-14T03:59:16.134Z,11.11
2023-04-14T04:01:45.030Z,11.10
2023-04-14T04:04:13.751Z,11.10
2023-04-14T04:06:42.193Z,11.04
2023-04-14T04:09:14.593Z,11.04
2023-04-14T04:11:46.840Z,11.06
2023-04-14T04:14:18.764Z,11.06
2023-04-14T04:16:49.776Z,11.10
2023-04-14T04:19:21.564Z,11.12
2023-04-14T04:21:50.489Z,11.10
2023-04-14T04:24:23.260Z,11.13
2023-04-14T04:26:53.011Z,11.20
2023-04-14T04:29:22.587Z,11.17
2023-04-14T04:31:51.399Z,11.25
2023-04-14T04:34:23.475Z,11.17
2023-04-14T04:36:51.690Z,11.27
2023-04-14T04:39:20.979Z,11.21
2023-04-14T04:41:51.976Z,11.21
2023-04-14T04:44:20.095Z,11.06
2023-04-14T04:46:53.669Z,11.00
2023-04-14T04:49:21.837Z,11.00
2023-04-14T04:51:50.285Z,11.02
2023-04-14T04:54:18.511Z,11.15
2023-04-14T04:56:47.811Z,11.19
2023-04-14T04:59:16.201Z,11.29
2023-04-14T05:01:44.149Z,11.34
2023-04-14T05:04:12.621Z,11.41
2023-04-14T05:06:40.637Z,11.47
2023-04-14T05:09:08.996Z,11.51
2023-04-14T05:11:37.008Z,11.42
2023-04-14T05:14:06.481Z,11.49
2023-04-14T05:16:34.544Z,11.59
2023-04-14T05:19:03.046Z,11.69
2023-04-14T05:21:31.141Z,11.78
2023-04-14T05:24:00.455Z,11.71
2023-04-14T05:26:48.810Z,11.86
2023-04-14T05:29:18.106Z,11.89
2023-04-14T05:31:46.114Z,12.02
2023-04-14T05:34:15.103Z,12.05
2023-04-14T05:36:43.045Z,12.13
2023-04-14T05:39:10.985Z,12.13
2023-04-14T05:41:38.907Z,12.17
2023-04-14T05:44:06.878Z,11.97
2023-04-14T05:46:36.190Z,12.19
2023-04-14T05:49:05.724Z,12.35
2023-04-14T05:51:33.717Z,12.52
2023-04-14T05:54:01.761Z,12.59
2023-04-14T05:56:29.999Z,12.73
2023-04-14T05:58:57.838Z,12.73
2023-04-14T06:01:25.868Z,12.86
2023-04-14T06:03:55.402Z,12.96
2023-04-14T06:06:23.413Z,12.94
2023-04-14T06:08:51.276Z,12.95
2023-04-14T06:11:19.137Z,13.08
2023-04-14T06:13:47.136Z,13.20
2023-04-14T06:16:15.032Z,13.29
2023-04-14T06:18:42.932Z,13.37
2023-04-14T06:21:13.128Z,13.42
2023-04-14T06:23:40.986Z,13.50
2023-04-14T06:26:08.904Z,13.57
2023-04-14T06:28:36.750Z,13.56
2023-04-14T06:31:04.744Z,13.60
2023-04-14T06:33:33.152Z,13.69
2023-04-14T06:36:01.063Z,13.62
2023-04-14T06:38:30.312Z,13.65
2023-04-14T06:40:58.144Z,13.66
2023-04-14T06:43:26.061Z,13.78
2023-04-14T06:45:54.018Z,13.86
2023-04-14T06:48:21.900Z,13.91
2023-04-14T06:50:54.902Z,14.11
2023-04-14T06:53:22.868Z,14.18
2023-04-14T06:55:59.401Z,14.22
2023-04-14T06:58:28.713Z,14.28
2023-04-14T07:00:57.463Z,14.38
2023-04-14T07:03:26.183Z,14.31
2023-04-14T07:05:54.571Z,14.43
2023-04-14T07:08:22.999Z,14.58
2023-04-14T07:11:00.525Z,14.67
2023-04-14T07:13:28.416Z,14.78
2023-04-14T07:15:56.633Z,14.86
2023-04-14T07:18:24.856Z,14.92
2023-04-14T07:20:54.204Z,15.17
2023-04-14T07:23:22.782Z,15.42
2023-04-14T07:25:52.807Z,15.56
2023-04-14T07:28:20.815Z,15.67
2023-04-14T07:30:48.837Z,15.76
2023-04-14T07:33:18.672Z,15.75
2023-04-14T07:36:00.687Z,15.88
2023-04-14T07:38:29.742Z,16.07
2023-04-14T07:40:59.033Z,16.12
2023-04-14T07:43:27.353Z,16.12
2023-04-14T07:45:55.611Z,16.21
2023-04-14T07:48:23.570Z,16.09
2023-04-14T07:50:51.420Z,16.22
2023-04-14T07:53:19.415Z,16.40
2023-04-14T07:55:47.584Z,16.54
2023-04-14T07:58:17.204Z,16.66
2023-04-14T08:00:45.585Z,16.84
2023-04-14T08:03:14.198Z,16.91
2023-04-14T08:05:43.857Z,17.09
2023-04-14T08:08:12.410Z,17.13
2023-04-14T08:10:40.660Z,17.18
2023-04-14T08:13:08.584Z,17.21
2023-04-14T08:15:37.809Z,17.22
2023-04-14T08:18:06.076Z,17.18
2023-04-14T08:20:34.047Z,17.32
2023-04-14T08:23:01.928Z,17.61
2023-04-14T08:25:29.786Z,17.57
2023-04-14T08:27:57.664Z,17.70
2023-04-14T08:30:26.290Z,17.78
2023-04-14T08:32:59.014Z,17.90
2023-04-14T08:35:37.398Z,18.09
2023-04-14T08:38:08.243Z,18.28
2023-04-14T08:40:39.599Z,18.50
2023-04-14T08:43:08.059Z,18.74
2023-04-14T08:45:36.314Z,18.73
2023-04-14T08:48:07.429Z,18.95
2023-04-14T08:50:39.034Z,18.82
2023-04-14T08:53:10.684Z,19.07
2023-04-14T08:55:42.202Z,19.32
2023-04-14T08:58:11.629Z,19.18
2023-04-14T09:00:41.192Z,19.22
2023-04-14T09:03:11.649Z,19.34
2023-04-14T09:05:40.774Z,19.48
2023-04-14T09:08:08.716Z,19.64
2023-04-14T09:10:37.106Z,20.01
2023-04-14T09:13:06.626Z,20.15
2023-04-14T09:15:34.603Z,20.23
2023-04-14T09:18:03.157Z,20.25
2023-04-14T09:20:38.898Z,19.96
2023-04-14T09:23:09.370Z,19.87
2023-04-14T09:25:39.727Z,19.82
2023-04-14T09:28:10.008Z,19.67
2023-04-14T09:30:38.626Z,19.99
2023-04-14T09:33:07.623Z,20.11
2023-04-14T09:35:48.603Z,20.14
2023-04-14T09:38:18.010Z,19.90
2023-04-14T09:40:46.122Z,19.86
2023-04-14T09:43:27.904Z,20.00
2023-04-14T09:45:57.131Z,19.80
2023-04-14T09:48:25.783Z,19.83
2023-04-14T09:51:03.340Z,19.51
2023-04-14T09:53:32.897Z,20.03
2023-04-14T09:56:03.537Z,19.52
2023-04-14T09:58:32.732Z,19.83
2023-04-14T10:01:00.997Z,19.70
2023-04-14T10:03:40.138Z,19.55
2023-04-14T10:06:10.852Z,19.37
2023-04-14T10:08:42.331Z,19.54
2023-04-14T10:11:20.845Z,19.63
2023-04-14T10:13:50.805Z,19.77
2023-04-14T10:16:19.162Z,19.51
2023-04-14T10:18:48.038Z,19.18
2023-04-14T10:21:18.100Z,19.16
2023-04-14T10:23:46.359Z,19.39
2023-04-14T10:26:14.910Z,19.23
2023-04-14T10:28:45.874Z,19.72
2023-04-14T10:31:16.875Z,19.38
2023-04-14T10:33:44.772Z,18.77
2023-04-14T10:36:13.266Z,19.00
2023-04-14T10:38:44.170Z,19.05
2023-04-14T10:41:12.796Z,18.14
2023-04-14T10:43:41.809Z,17.13
2023-04-14T10:46:11.153Z,17.14
2023-04-14T10:48:41.387Z,16.11
2023-04-14T10:51:11.908Z,15.76
2023-04-14T10:53:47.787Z,14.99
2023-04-14T10:56:15.790Z,14.51
2023-04-14T10:58:55.619Z,14.45
2023-04-14T11:01:30.022Z,14.47
2023-04-14T11:03:58.958Z,13.90
2023-04-14T11:06:53.585Z,13.79
2023-04-14T11:09:37.295Z,13.46
2023-04-14T11:12:07.472Z,13.28
2023-04-14T11:14:37.236Z,12.98
2023-04-14T11:17:06.391Z,12.75
2023-04-14T11:19:34.584Z,12.54
2023-04-14T11:22:02.539Z,12.62
2023-04-14T11:24:33.682Z,12.34
2023-04-14T11:27:01.555Z,12.28
2023-04-14T11:29:29.448Z,12.28
2023-04-14T11:32:05.739Z,12.08
2023-04-14T11:34:34.387Z,12.16
2023-04-14T11:37:05.931Z,12.13
2023-04-14T11:39:36.588Z,12.02
2023-04-14T11:42:05.711Z,11.98
2023-04-14T11:44:33.868Z,12.08
2023-04-14T11:47:02.175Z,12.09
2023-04-14T11:49:36.935Z,11.87
2023-04-14T11:52:08.969Z,11.74
2023-04-14T11:54:39.316Z,11.51
2023-04-14T11:57:11.814Z,11.34
2023-04-14T11:59:44.123Z,11.01
2023-04-14T12:02:20.170Z,10.72
2023-04-14T12:04:50.614Z,10.44
2023-04-14T12:07:20.952Z,10.41
2023-04-14T12:09:51.767Z,10.49
2023-04-14T12:12:20.543Z,10.49
2023-04-14T12:14:50.211Z,10.62
2023-04-14T12:17:20.296Z,10.75
2023-04-14T12:19:48.922Z,10.75
2023-04-14T12:22:24.880Z,10.65
2023-04-14T12:24:55.183Z,10.54
2023-04-14T12:27:25.020Z,10.85
2023-04-14T12:29:53.721Z,10.94
2023-04-14T12:32:22.890Z,10.78
2023-04-14T12:34:55.572Z,10.88
2023-04-14T12:37:26.461Z,10.91
2023-04-14T12:39:59.016Z,11.27
2023-04-14T12:42:27.445Z,11.29
2023-04-14T12:44:56.710Z,11.24
2023-04-14T12:47:29.590Z,11.38
2023-04-14T12:49:58.600Z,11.59
2023-04-14T12:52:39.854Z,11.65
2023-04-14T12:55:20.909Z,11.62
2023-04-14T12:57:49.036Z,11.67
2023-04-14T13:00:17.750Z,11.70
2023-04-14T13:02:46.945Z,11.49
2023-04-14T13:05:17.439Z,11.44
2023-04-14T13:07:46.511Z,11.49
2023-04-14T13:10:16.072Z,11.17
2023-04-14T13:12:44.289Z,10.97
2023-04-14T13:16:12.226Z,10.86
2023-04-14T13:18:01.570Z,10.91
2023-04-14T13:20:30.983Z,11.10
2023-04-14T13:22:58.898Z,11.38
2023-04-14T13:25:28.111Z,11.22
2023-04-14T13:27:56.348Z,11.52
2023-04-14T13:30:24.201Z,11.84
2023-04-14T13:32:52.742Z,12.03
2023-04-14T13:35:21.122Z,11.76
2023-04-14T13:37:50.023Z,11.63
2023-04-14T13:40:18.008Z,11.90
2023-04-14T13:42:47.440Z,12.09
2023-04-14T13:45:15.919Z,12.18
2023-04-14T13:47:43.814Z,12.34
2023-04-14T13:50:12.683Z,12.00
2023-04-14T13:52:41.076Z,12.57
2023-04-14T13:55:10.715Z,12.99
2023-04-14T13:57:39.106Z,12.86
2023-04-14T14:00:10.376Z,12.60
2023-04-14T14:02:40.068Z,12.21
2023-04-14T14:05:09.090Z,12.05
2023-04-14T14:07:41.388Z,11.92
2023-04-14T14:10:10.990Z,12.17
2023-04-14T14:12:39.152Z,12.57
2023-04-14T14:15:10.116Z,12.83
2023-04-14T14:17:38.372Z,13.00
2023-04-14T14:20:07.547Z,13.08
2023-04-14T14:22:35.576Z,13.47
2023-04-14T14:25:17.509Z,13.64
2023-04-14T14:27:47.947Z,13.78
2023-04-14T14:30:17.234Z,13.89
2023-04-14T14:32:48.626Z,14.28
2023-04-14T14:35:17.353Z,14.30
2023-04-14T14:37:45.803Z,14.55
2023-04-14T14:40:14.235Z,14.69
2023-04-14T14:42:44.079Z,14.62
2023-04-14T14:45:12.643Z,14.45
2023-04-14T14:47:42.027Z,14.38
2023-04-14T14:50:10.641Z,14.41
2023-04-14T14:52:38.617Z,14.29
2023-04-14T14:55:07.673Z,14.18
2023-04-14T14:57:35.635Z,14.06
2023-04-14T15:00:05.710Z,14.18
2023-04-14T15:02:33.854Z,14.21
2023-04-14T15:05:03.248Z,14.37
2023-04-14T15:07:31.520Z,14.83
2023-04-14T15:09:59.427Z,15.34
2023-04-14T15:12:27.265Z,15.63
2023-04-14T15:14:55.109Z,16.58
2023-04-14T15:17:23.404Z,16.87
2023-04-14T15:19:51.276Z,16.24
2023-04-14T15:22:20.736Z,15.80
2023-04-14T15:24:48.624Z,15.47
2023-04-14T15:27:16.462Z,15.68
2023-04-14T15:29:44.503Z,16.15
2023-04-14T15:32:12.866Z,16.76
2023-04-14T15:34:40.907Z,17.34
2023-04-14T15:37:08.812Z,17.98
2023-04-14T15:39:39.002Z,18.24
2023-04-14T15:42:07.340Z,18.36
2023-04-14T15:44:35.331Z,19.10
2023-04-14T15:47:05.091Z,19.32
2023-04-14T15:49:32.948Z,19.49
2023-04-14T15:52:00.823Z,19.54
2023-04-14T15:54:29.122Z,19.24
2023-04-14T15:56:58.385Z,19.00
2023-04-14T15:59:28.906Z,18.97
2023-04-14T16:01:57.013Z,18.89
2023-04-14T16:04:25.369Z,18.58
2023-04-14T16:06:54.999Z,18.43
2023-04-14T16:09:22.903Z,18.46
2023-04-14T16:11:51.227Z,18.66
2023-04-14T16:14:20.543Z,18.41
2023-04-14T16:16:48.403Z,18.38
2023-04-14T16:19:17.191Z,18.48
2023-04-14T16:21:45.048Z,18.09
2023-04-14T16:24:12.935Z,17.70
2023-04-14T16:26:40.834Z,17.27
2023-04-14T16:29:08.743Z,16.53
2023-04-14T16:31:38.351Z,15.83
2023-04-14T16:34:06.294Z,15.48
2023-04-14T16:36:34.341Z,15.33
2023-04-14T16:39:02.425Z,15.17
2023-04-14T16:41:31.900Z,15.20
2023-04-14T16:44:00.402Z,15.16
2023-04-14T16:46:28.674Z,15.25
2023-04-14T16:48:58.065Z,15.34
2023-04-14T16:51:27.443Z,15.53
2023-04-14T16:53:55.297Z,15.67
2023-04-14T16:56:23.190Z,15.85
2023-04-14T16:58:51.069Z,15.71
2023-04-14T17:01:19.014Z,15.41
2023-04-14T17:03:47.058Z,14.89
2023-04-14T17:06:16.684Z,14.37
2023-04-14T17:08:44.601Z,14.18
2023-04-14T17:11:12.738Z,14.02
2023-04-14T17:13:42.556Z,13.27
2023-04-14T17:16:11.172Z,13.44
2023-04-14T17:18:39.269Z,13.47
2023-04-14T17:21:07.775Z,13.40
2023-04-14T17:23:38.333Z,12.87
2023-04-14T17:26:06.766Z,13.07
2023-04-14T17:28:35.818Z,13.06
2023-04-14T17:31:09.751Z,12.93
2023-04-14T17:33:37.717Z,12.46
2023-04-14T17:36:08.030Z,12.25
2023-04-14T17:38:38.802Z,12.21
2023-04-14T17:41:06.930Z,12.46
2023-04-14T17:43:37.930Z,12.58
2023-04-14T17:46:06.831Z,12.54
2023-04-14T17:48:34.842Z,12.40
2023-04-14T17:51:05.069Z,12.23
2023-04-14T17:53:33.116Z,12.24
2023-04-14T17:56:02.476Z,11.99
2023-04-14T17:58:35.304Z,12.11
2023-04-14T18:01:05.339Z,12.10
2023-04-14T18:03:33.375Z,12.22
2023-04-14T18:06:01.819Z,12.33
2023-04-14T18:08:29.662Z,12.38
2023-04-14T18:10:59.576Z,12.41
2023-04-14T18:13:28.866Z,12.40
2023-04-14T18:15:56.774Z,12.20
2023-04-14T18:18:25.902Z,12.39
2023-04-14T18:20:54.090Z,12.35
2023-04-14T18:23:22.425Z,12.07
2023-04-14T18:28:32.247Z,11.82
2023-04-14T18:31:00.430Z,11.86
2023-04-14T18:33:36.406Z,11.83
2023-04-14T18:36:05.320Z,11.59
2023-04-14T18:38:33.389Z,11.26
2023-04-14T18:41:05.291Z,11.47
2023-04-14T18:43:34.762Z,11.61
2023-04-14T18:46:05.420Z,11.67
2023-04-14T18:48:33.744Z,11.57
2023-04-14T18:51:06.958Z,11.46
2023-04-14T18:53:35.529Z,11.19
2023-04-14T18:56:05.561Z,11.15
2023-04-14T18:58:34.880Z,11.16
2023-04-14T19:01:03.796Z,11.17
2023-04-14T19:03:32.201Z,11.09
2023-04-14T19:06:00.253Z,11.12
2023-04-14T19:08:28.269Z,11.29
2023-04-14T19:10:56.146Z,11.28
2023-04-14T19:13:24.515Z,11.29
2023-04-14T19:15:53.971Z,11.03
2023-04-14T19:18:22.106Z,11.21
2023-04-14T19:20:49.945Z,11.16
2023-04-14T19:23:18.029Z,11.11
2023-04-14T19:25:45.936Z,11.00
2023-04-14T19:28:16.812Z,10.90
2023-04-14T19:30:47.926Z,10.69
2023-04-14T19:33:17.353Z,10.78
2023-04-14T19:35:46.104Z,10.92
2023-04-14T19:38:14.630Z,10.82
2023-04-14T19:40:48.260Z,10.86
2023-04-14T19:43:16.303Z,10.99
2023-04-14T19:45:54.529Z,11.05
2023-04-14T19:48:24.632Z,10.99
2023-04-14T19:50:54.365Z,10.95
2023-04-14T19:53:23.674Z,10.75
2023-04-14T19:55:52.044Z,10.61
2023-04-14T19:58:21.487Z,10.46
2023-04-14T20:00:51.548Z,10.46
2023-04-14T20:03:22.251Z,10.34
2023-04-14T20:05:55.890Z,10.13
2023-04-14T20:08:23.852Z,10.09
2023-04-14T20:10:54.171Z,10.07
2023-04-14T20:13:24.415Z,9.98
2023-04-14T20:15:54.987Z,10.07
2023-04-14T20:18:23.447Z,10.00
2023-04-14T20:20:51.715Z,10.00
2023-04-14T20:23:21.036Z,9.97
2023-04-14T20:25:49.340Z,9.81
2023-04-14T20:28:19.376Z,9.69
2023-04-14T20:30:49.512Z,9.63
2023-04-14T20:33:18.545Z,9.72
2023-04-14T20:35:46.564Z,9.61
2023-04-14T20:38:15.503Z,9.67
2023-04-14T20:40:45.249Z,9.69
2023-04-14T20:43:13.196Z,9.70
2023-04-14T20:45:41.511Z,9.68
2023-04-14T20:48:09.384Z,9.61
2023-04-14T20:50:37.627Z,9.49
2023-04-14T20:53:05.487Z,9.46
2023-04-14T20:55:33.540Z,9.44
2023-04-14T20:58:02.932Z,9.36
2023-04-14T21:00:33.084Z,9.41
2023-04-14T21:03:03.529Z,9.44
2023-04-14T21:05:31.670Z,9.45
2023-04-14T21:07:59.769Z,9.33
2023-04-14T21:10:27.806Z,9.32
2023-04-14T21:15:29.674Z,9.31
2023-04-14T21:15:54.968Z,9.01
2023-04-14T21:18:25.101Z,9.26
2023-04-14T21:20:53.085Z,9.06
2023-04-14T21:23:21.331Z,8.90
2023-04-14T21:25:49.295Z,9.13
2023-04-14T21:28:18.530Z,8.95
2023-04-14T21:30:47.744Z,9.17
2023-04-14T21:33:15.669Z,9.29
2023-04-14T21:35:43.693Z,9.22
2023-04-14T21:38:11.545Z,9.36
2023-04-14T21:40:39.601Z,9.45
2023-04-14T21:43:07.502Z,9.48
2023-04-14T21:45:35.486Z,9.52
2023-04-14T21:48:05.124Z,9.45
2023-04-14T21:50:35.264Z,9.59
2023-04-14T21:53:04.219Z,9.61
2023-04-14T21:55:32.503Z,9.52
2023-04-14T21:58:00.450Z,9.51
2023-04-14T22:00:28.713Z,9.55
2023-04-14T22:02:56.737Z,9.55
2023-04-14T22:05:26.069Z,9.52
2023-04-14T22:07:54.980Z,9.46
2023-04-14T22:10:23.576Z,9.53
2023-04-14T22:12:52.078Z,9.47
2023-04-14T22:15:20.220Z,9.50
2023-04-14T22:17:48.307Z,9.52
2023-04-14T22:20:16.606Z,9.51
2023-04-14T22:22:45.854Z,9.53
2023-04-14T22:25:13.723Z,9.52
2023-04-14T22:27:41.691Z,9.38
2023-04-14T22:30:11.712Z,9.43
2023-04-14T22:32:39.750Z,9.39
2023-04-14T22:35:08.282Z,9.41
2023-04-14T22:37:36.266Z,9.33
2023-04-14T22:40:06.814Z,9.30
2023-04-14T22:42:34.702Z,9.26
2023-04-14T22:45:02.570Z,9.24
2023-04-14T22:47:30.758Z,9.23
2023-04-14T22:49:58.655Z,9.20
2023-04-14T22:52:27.531Z,9.09
2023-04-14T22:54:55.579Z,9.12
2023-04-14T22:57:24.842Z,9.08
2023-04-14T22:59:53.093Z,9.04
2023-04-14T23:02:21.431Z,9.12
2023-04-14T23:04:49.594Z,9.10
2023-04-14T23:07:17.646Z,9.01
2023-04-14T23:09:45.697Z,8.79
2023-04-14T23:12:13.574Z,8.67
2023-04-14T23:14:42.834Z,8.44
2023-04-14T23:17:11.140Z,8.33
2023-04-14T23:19:39.357Z,8.31
2023-04-14T23:22:08.594Z,8.43
2023-04-14T23:24:36.517Z,8.53
2023-04-14T23:27:04.590Z,8.61
2023-04-14T23:29:32.447Z,8.62
2023-04-14T23:32:02.959Z,8.58
2023-04-14T23:34:30.841Z,8.54
2023-04-14T23:36:59.119Z,8.51
2023-04-14T23:39:27.038Z,8.50
2023-04-14T23:41:54.884Z,8.47
2023-04-14T23:44:22.744Z,8.32
2023-04-14T23:46:51.724Z,8.42
2023-04-14T23:49:24.333Z,8.24
2023-04-14T23:52:03.346Z,8.17
2023-04-14T23:54:31.821Z,8.15
2023-04-14T23:56:59.950Z,8.17
2023-04-14T23:59:28.409Z,7.79
